sensor_id;sensor_type;location;lat;lon;timestamp;P1;durP1;ratioP1;P2;durP2;ratioP2
27818;SDS011;15192;44.854;10.046;2023-06-24T00:02:01;16.20;;;11.15;;
27818;SDS011;15192;44.854;10.046;2023-06-24T00:04:30;18.95;;;11.15;;
27818;SDS011;15192;44.854;10.046;2023-06-24T00:07:00;19.15;;;10.45;;
27818;SDS011;15192;44.854;10.046;2023-06-24T00:09:29;17.70;;;11.25;;
27818;SDS011;15192;44.854;10.046;2023-06-24T00:11:58;21.15;;;11.48;;
27818;SDS011;15192;44.854;10.046;2023-06-24T00:14:27;22.52;;;11.55;;
27818;SDS011;15192;44.854;10.046;2023-06-24T00:16:56;34.53;;;12.45;;
27818;SDS011;15192;44.854;10.046;2023-06-24T00:19:25;19.70;;;11.15;;
27818;SDS011;15192;44.854;10.046;2023-06-24T00:21:55;19.10;;;11.25;;
27818;SDS011;15192;44.854;10.046;2023-06-24T00:24:25;17.40;;;9.83;;
27818;SDS011;15192;44.854;10.046;2023-06-24T00:26:55;18.30;;;9.90;;
27818;SDS011;15192;44.854;10.046;2023-06-24T00:29:24;17.27;;;8.80;;
27818;SDS011;15192;44.854;10.046;2023-06-24T00:31:54;17.82;;;9.65;;
27818;SDS011;15192;44.854;10.046;2023-06-24T00:34:23;18.48;;;9.65;;
27818;SDS011;15192;44.854;10.046;2023-06-24T00:36:52;19.30;;;9.75;;
27818;SDS011;15192;44.854;10.046;2023-06-24T00:39:21;18.40;;;8.85;;
27818;SDS011;15192;44.854;10.046;2023-06-24T00:41:50;15.08;;;8.43;;
27818;SDS011;15192;44.854;10.046;2023-06-24T00:44:21;14.47;;;8.48;;
27818;SDS011;15192;44.854;10.046;2023-06-24T00:46:50;13.62;;;8.25;;
27818;SDS011;15192;44.854;10.046;2023-06-24T00:49:19;12.70;;;8.18;;
27818;SDS011;15192;44.854;10.046;2023-06-24T00:51:48;15.32;;;8.30;;
27818;SDS011;15192;44.854;10.046;2023-06-24T00:54:17;14.33;;;7.62;;
27818;SDS011;15192;44.854;10.046;2023-06-24T00:56:46;12.07;;;7.58;;
27818;SDS011;15192;44.854;10.046;2023-06-24T00:59:15;17.15;;;7.95;;
27818;SDS011;15192;44.854;10.046;2023-06-24T01:01:45;12.35;;;7.33;;
27818;SDS011;15192;44.854;10.046;2023-06-24T01:04:16;16.73;;;7.90;;
27818;SDS011;15192;44.854;10.046;2023-06-24T01:06:46;11.55;;;7.75;;
27818;SDS011;15192;44.854;10.046;2023-06-24T01:09:16;15.23;;;8.15;;
27818;SDS011;15192;44.854;10.046;2023-06-24T01:11:45;11.50;;;7.70;;
27818;SDS011;15192;44.854;10.046;2023-06-24T01:14:15;12.75;;;8.53;;
27818;SDS011;15192;44.854;10.046;2023-06-24T01:19:37;14.07;;;7.87;;
27818;SDS011;15192;44.854;10.046;2023-06-24T01:33:13;17.73;;;9.35;;
27818;SDS011;15192;44.854;10.046;2023-06-24T01:38:15;12.82;;;8.33;;
27818;SDS011;15192;44.854;10.046;2023-06-24T01:43:13;12.85;;;8.03;;
27818;SDS011;15192;44.854;10.046;2023-06-24T01:45:49;17.37;;;8.95;;
27818;SDS011;15192;44.854;10.046;2023-06-24T01:48:22;12.78;;;7.92;;
27818;SDS011;15192;44.854;10.046;2023-06-24T01:51:06;14.40;;;8.78;;
27818;SDS011;15192;44.854;10.046;2023-06-24T01:53:32;15.95;;;8.43;;
27818;SDS011;15192;44.854;10.046;2023-06-24T01:56:02;14.13;;;8.78;;
27818;SDS011;15192;44.854;10.046;2023-06-24T01:58:34;14.20;;;8.78;;
27818;SDS011;15192;44.854;10.046;2023-06-24T02:01:04;17.92;;;9.18;;
27818;SDS011;15192;44.854;10.046;2023-06-24T02:03:35;19.70;;;9.50;;
27818;SDS011;15192;44.854;10.046;2023-06-24T02:06:05;13.18;;;9.00;;
27818;SDS011;15192;44.854;10.046;2023-06-24T02:08:37;19.25;;;10.05;;
27818;SDS011;15192;44.854;10.046;2023-06-24T02:11:08;14.35;;;9.25;;
27818;SDS011;15192;44.854;10.046;2023-06-24T02:13:39;15.23;;;8.88;;
27818;SDS011;15192;44.854;10.046;2023-06-24T02:16:11;15.60;;;8.83;;
27818;SDS011;15192;44.854;10.046;2023-06-24T02:18:42;19.62;;;9.15;;
27818;SDS011;15192;44.854;10.046;2023-06-24T02:21:12;15.50;;;8.98;;
27818;SDS011;15192;44.854;10.046;2023-06-24T02:23:42;15.53;;;9.38;;
27818;SDS011;15192;44.854;10.046;2023-06-24T02:26:11;17.05;;;9.15;;
27818;SDS011;15192;44.854;10.046;2023-06-24T02:28:40;14.87;;;8.48;;
27818;SDS011;15192;44.854;10.046;2023-06-24T02:31:12;15.18;;;10.00;;
27818;SDS011;15192;44.854;10.046;2023-06-24T02:33:42;21.33;;;9.90;;
27818;SDS011;15192;44.854;10.046;2023-06-24T02:36:11;14.60;;;9.00;;
27818;SDS011;15192;44.854;10.046;2023-06-24T02:38:40;16.48;;;10.50;;
27818;SDS011;15192;44.854;10.046;2023-06-24T02:41:09;16.05;;;9.20;;
27818;SDS011;15192;44.854;10.046;2023-06-24T02:43:38;15.23;;;9.40;;
27818;SDS011;15192;44.854;10.046;2023-06-24T02:46:07;13.88;;;8.95;;
27818;SDS011;15192;44.854;10.046;2023-06-24T02:48:37;13.15;;;8.73;;
27818;SDS011;15192;44.854;10.046;2023-06-24T02:51:07;15.78;;;9.48;;
27818;SDS011;15192;44.854;10.046;2023-06-24T02:53:38;20.40;;;9.60;;
27818;SDS011;15192;44.854;10.046;2023-06-24T02:56:08;14.53;;;9.05;;
27818;SDS011;15192;44.854;10.046;2023-06-24T02:58:38;23.35;;;8.60;;
27818;SDS011;15192;44.854;10.046;2023-06-24T03:01:09;16.57;;;9.88;;
27818;SDS011;15192;44.854;10.046;2023-06-24T03:03:46;13.50;;;8.75;;
27818;SDS011;15192;44.854;10.046;2023-06-24T03:06:17;13.98;;;9.33;;
27818;SDS011;15192;44.854;10.046;2023-06-24T03:08:47;14.07;;;9.00;;
27818;SDS011;15192;44.854;10.046;2023-06-24T03:11:19;30.20;;;9.50;;
27818;SDS011;15192;44.854;10.046;2023-06-24T03:13:48;18.67;;;10.10;;
27818;SDS011;15192;44.854;10.046;2023-06-24T03:16:22;18.80;;;9.58;;
27818;SDS011;15192;44.854;10.046;2023-06-24T03:18:55;15.15;;;9.40;;
27818;SDS011;15192;44.854;10.046;2023-06-24T03:21:24;16.27;;;10.15;;
27818;SDS011;15192;44.854;10.046;2023-06-24T03:23:56;18.70;;;10.23;;
27818;SDS011;15192;44.854;10.046;2023-06-24T03:26:37;19.45;;;9.10;;
27818;SDS011;15192;44.854;10.046;2023-06-24T03:31:39;16.37;;;9.08;;
27818;SDS011;15192;44.854;10.046;2023-06-24T03:34:11;15.00;;;8.95;;
27818;SDS011;15192;44.854;10.046;2023-06-24T03:36:41;15.65;;;9.73;;
27818;SDS011;15192;44.854;10.046;2023-06-24T03:39:10;14.85;;;8.95;;
27818;SDS011;15192;44.854;10.046;2023-06-24T03:41:39;20.10;;;9.65;;
27818;SDS011;15192;44.854;10.046;2023-06-24T03:44:08;13.70;;;8.43;;
27818;SDS011;15192;44.854;10.046;2023-06-24T03:46:38;13.75;;;8.33;;
27818;SDS011;15192;44.854;10.046;2023-06-24T03:49:08;15.23;;;8.75;;
27818;SDS011;15192;44.854;10.046;2023-06-24T03:51:37;17.10;;;8.98;;
27818;SDS011;15192;44.854;10.046;2023-06-24T03:54:06;15.03;;;8.53;;
27818;SDS011;15192;44.854;10.046;2023-06-24T03:56:35;13.62;;;8.45;;
27818;SDS011;15192;44.854;10.046;2023-06-24T03:59:05;13.25;;;8.55;;
27818;SDS011;15192;44.854;10.046;2023-06-24T04:01:34;16.10;;;8.55;;
27818;SDS011;15192;44.854;10.046;2023-06-24T04:04:03;16.12;;;9.73;;
27818;SDS011;15192;44.854;10.046;2023-06-24T04:06:33;14.78;;;9.28;;
27818;SDS011;15192;44.854;10.046;2023-06-24T04:09:01;16.00;;;9.20;;
27818;SDS011;15192;44.854;10.046;2023-06-24T04:11:31;21.40;;;9.10;;
27818;SDS011;15192;44.854;10.046;2023-06-24T04:14:00;19.75;;;9.30;;
27818;SDS011;15192;44.854;10.046;2023-06-24T04:16:29;16.60;;;9.08;;
27818;SDS011;15192;44.854;10.046;2023-06-24T04:18:58;13.98;;;8.20;;
27818;SDS011;15192;44.854;10.046;2023-06-24T04:21:26;24.00;;;8.35;;
27818;SDS011;15192;44.854;10.046;2023-06-24T04:23:56;31.12;;;10.95;;
27818;SDS011;15192;44.854;10.046;2023-06-24T04:26:24;17.35;;;9.25;;
27818;SDS011;15192;44.854;10.046;2023-06-24T04:28:54;11.12;;;7.78;;
27818;SDS011;15192;44.854;10.046;2023-06-24T04:31:22;20.12;;;9.13;;
27818;SDS011;15192;44.854;10.046;2023-06-24T04:33:52;17.65;;;8.80;;
27818;SDS011;15192;44.854;10.046;2023-06-24T04:36:22;15.68;;;8.80;;
27818;SDS011;15192;44.854;10.046;2023-06-24T04:38:51;13.53;;;8.20;;
27818;SDS011;15192;44.854;10.046;2023-06-24T04:41:20;10.72;;;7.50;;
27818;SDS011;15192;44.854;10.046;2023-06-24T04:43:49;10.88;;;7.97;;
27818;SDS011;15192;44.854;10.046;2023-06-24T04:46:18;11.85;;;6.90;;
27818;SDS011;15192;44.854;10.046;2023-06-24T04:48:47;9.83;;;6.58;;
27818;SDS011;15192;44.854;10.046;2023-06-24T04:51:16;12.05;;;6.65;;
27818;SDS011;15192;44.854;10.046;2023-06-24T04:53:45;16.85;;;7.87;;
27818;SDS011;15192;44.854;10.046;2023-06-24T04:56:14;14.55;;;7.47;;
27818;SDS011;15192;44.854;10.046;2023-06-24T04:58:43;18.32;;;7.20;;
27818;SDS011;15192;44.854;10.046;2023-06-24T05:01:11;17.80;;;7.22;;
27818;SDS011;15192;44.854;10.046;2023-06-24T05:03:40;17.23;;;6.95;;
27818;SDS011;15192;44.854;10.046;2023-06-24T05:06:09;10.15;;;6.75;;
27818;SDS011;15192;44.854;10.046;2023-06-24T05:08:38;14.73;;;6.92;;
27818;SDS011;15192;44.854;10.046;2023-06-24T05:11:07;16.25;;;6.80;;
27818;SDS011;15192;44.854;10.046;2023-06-24T05:13:37;11.08;;;6.08;;
27818;SDS011;15192;44.854;10.046;2023-06-24T05:16:05;10.60;;;6.90;;
27818;SDS011;15192;44.854;10.046;2023-06-24T05:18:34;9.30;;;5.95;;
27818;SDS011;15192;44.854;10.046;2023-06-24T05:21:03;11.85;;;6.10;;
27818;SDS011;15192;44.854;10.046;2023-06-24T05:23:32;11.00;;;5.97;;
27818;SDS011;15192;44.854;10.046;2023-06-24T05:26:01;13.78;;;6.40;;
27818;SDS011;15192;44.854;10.046;2023-06-24T05:28:30;11.60;;;5.60;;
27818;SDS011;15192;44.854;10.046;2023-06-24T05:30:59;13.43;;;6.03;;
27818;SDS011;15192;44.854;10.046;2023-06-24T05:33:28;7.75;;;5.30;;
27818;SDS011;15192;44.854;10.046;2023-06-24T05:35:57;6.75;;;4.87;;
27818;SDS011;15192;44.854;10.046;2023-06-24T05:38:26;8.20;;;5.33;;
27818;SDS011;15192;44.854;10.046;2023-06-24T05:40:55;6.53;;;4.47;;
27818;SDS011;15192;44.854;10.046;2023-06-24T05:43:32;8.00;;;5.00;;
27818;SDS011;15192;44.854;10.046;2023-06-24T05:48:34;6.85;;;4.17;;
27818;SDS011;15192;44.854;10.046;2023-06-24T05:51:13;5.87;;;4.40;;
27818;SDS011;15192;44.854;10.046;2023-06-24T05:53:42;8.58;;;4.60;;
27818;SDS011;15192;44.854;10.046;2023-06-24T05:56:14;9.20;;;4.87;;
27818;SDS011;15192;44.854;10.046;2023-06-24T05:58:43;9.53;;;4.40;;
27818;SDS011;15192;44.854;10.046;2023-06-24T06:01:12;7.83;;;4.40;;
27818;SDS011;15192;44.854;10.046;2023-06-24T06:03:41;7.55;;;4.62;;
27818;SDS011;15192;44.854;10.046;2023-06-24T06:06:10;9.53;;;5.05;;
27818;SDS011;15192;44.854;10.046;2023-06-24T06:08:38;7.28;;;4.87;;
27818;SDS011;15192;44.854;10.046;2023-06-24T06:11:08;5.90;;;4.40;;
27818;SDS011;15192;44.854;10.046;2023-06-24T06:13:37;7.62;;;4.58;;
27818;SDS011;15192;44.854;10.046;2023-06-24T06:16:06;7.03;;;4.90;;
27818;SDS011;15192;44.854;10.046;2023-06-24T06:18:35;13.38;;;5.37;;
27818;SDS011;15192;44.854;10.046;2023-06-24T06:21:05;8.93;;;5.47;;
27818;SDS011;15192;44.854;10.046;2023-06-24T06:23:34;9.00;;;5.53;;
27818;SDS011;15192;44.854;10.046;2023-06-24T06:26:03;10.23;;;6.03;;
27818;SDS011;15192;44.854;10.046;2023-06-24T06:28:31;10.55;;;6.37;;
27818;SDS011;15192;44.854;10.046;2023-06-24T06:31:00;10.53;;;6.22;;
27818;SDS011;15192;44.854;10.046;2023-06-24T06:33:29;10.82;;;6.78;;
27818;SDS011;15192;44.854;10.046;2023-06-24T06:35:58;8.35;;;5.70;;
27818;SDS011;15192;44.854;10.046;2023-06-24T06:38:27;12.90;;;6.97;;
27818;SDS011;15192;44.854;10.046;2023-06-24T06:40:56;9.20;;;5.95;;
27818;SDS011;15192;44.854;10.046;2023-06-24T06:43:25;11.43;;;6.08;;
27818;SDS011;15192;44.854;10.046;2023-06-24T06:45:54;8.55;;;5.72;;
27818;SDS011;15192;44.854;10.046;2023-06-24T06:48:23;14.20;;;6.03;;
27818;SDS011;15192;44.854;10.046;2023-06-24T06:50:52;12.95;;;6.15;;
27818;SDS011;15192;44.854;10.046;2023-06-24T06:53:21;11.03;;;6.05;;
27818;SDS011;15192;44.854;10.046;2023-06-24T06:55:50;9.30;;;5.50;;
27818;SDS011;15192;44.854;10.046;2023-06-24T06:58:18;13.60;;;6.67;;
27818;SDS011;15192;44.854;10.046;2023-06-24T07:00:47;13.50;;;6.12;;
27818;SDS011;15192;44.854;10.046;2023-06-24T07:03:16;10.63;;;6.70;;
27818;SDS011;15192;44.854;10.046;2023-06-24T07:05:45;10.43;;;4.95;;
27818;SDS011;15192;44.854;10.046;2023-06-24T07:08:14;8.88;;;5.50;;
27818;SDS011;15192;44.854;10.046;2023-06-24T07:10:43;15.00;;;5.83;;
27818;SDS011;15192;44.854;10.046;2023-06-24T07:13:12;7.83;;;5.50;;
27818;SDS011;15192;44.854;10.046;2023-06-24T07:15:41;13.30;;;6.10;;
27818;SDS011;15192;44.854;10.046;2023-06-24T07:18:10;8.05;;;5.42;;
27818;SDS011;15192;44.854;10.046;2023-06-24T07:20:39;6.42;;;5.22;;
27818;SDS011;15192;44.854;10.046;2023-06-24T07:23:08;9.38;;;5.62;;
27818;SDS011;15192;44.854;10.046;2023-06-24T07:25:38;14.30;;;6.65;;
27818;SDS011;15192;44.854;10.046;2023-06-24T07:28:06;10.88;;;6.30;;
27818;SDS011;15192;44.854;10.046;2023-06-24T07:30:36;10.58;;;6.05;;
27818;SDS011;15192;44.854;10.046;2023-06-24T07:33:05;10.80;;;6.45;;
27818;SDS011;15192;44.854;10.046;2023-06-24T07:35:33;11.33;;;6.22;;
27818;SDS011;15192;44.854;10.046;2023-06-24T07:38:02;12.35;;;6.05;;
27818;SDS011;15192;44.854;10.046;2023-06-24T07:40:31;8.43;;;5.25;;
27818;SDS011;15192;44.854;10.046;2023-06-24T07:43:00;8.68;;;5.33;;
27818;SDS011;15192;44.854;10.046;2023-06-24T07:45:29;10.13;;;6.12;;
27818;SDS011;15192;44.854;10.046;2023-06-24T07:47:58;10.88;;;5.85;;
27818;SDS011;15192;44.854;10.046;2023-06-24T07:50:27;10.55;;;6.62;;
27818;SDS011;15192;44.854;10.046;2023-06-24T07:52:56;10.43;;;6.22;;
27818;SDS011;15192;44.854;10.046;2023-06-24T07:55:25;8.13;;;5.95;;
27818;SDS011;15192;44.854;10.046;2023-06-24T07:57:54;8.85;;;5.97;;
27818;SDS011;15192;44.854;10.046;2023-06-24T08:00:25;8.73;;;5.75;;
27818;SDS011;15192;44.854;10.046;2023-06-24T08:02:54;11.88;;;5.80;;
27818;SDS011;15192;44.854;10.046;2023-06-24T08:05:23;10.50;;;4.97;;
27818;SDS011;15192;44.854;10.046;2023-06-24T08:07:52;16.77;;;6.05;;
27818;SDS011;15192;44.854;10.046;2023-06-24T08:10:23;9.95;;;6.28;;
27818;SDS011;15192;44.854;10.046;2023-06-24T08:12:52;11.28;;;5.50;;
27818;SDS011;15192;44.854;10.046;2023-06-24T08:15:21;11.80;;;6.17;;
27818;SDS011;15192;44.854;10.046;2023-06-24T08:17:53;10.25;;;6.42;;
27818;SDS011;15192;44.854;10.046;2023-06-24T08:20:23;11.75;;;5.15;;
27818;SDS011;15192;44.854;10.046;2023-06-24T08:22:52;8.85;;;5.42;;
27818;SDS011;15192;44.854;10.046;2023-06-24T08:25:21;6.95;;;4.00;;
27818;SDS011;15192;44.854;10.046;2023-06-24T08:27:49;10.55;;;5.40;;
27818;SDS011;15192;44.854;10.046;2023-06-24T08:30:18;10.20;;;4.80;;
27818;SDS011;15192;44.854;10.046;2023-06-24T08:32:47;5.70;;;4.10;;
27818;SDS011;15192;44.854;10.046;2023-06-24T08:35:16;9.65;;;4.83;;
27818;SDS011;15192;44.854;10.046;2023-06-24T08:37:45;9.88;;;4.47;;
27818;SDS011;15192;44.854;10.046;2023-06-24T08:40:14;10.28;;;4.37;;
27818;SDS011;15192;44.854;10.046;2023-06-24T08:42:43;8.25;;;4.37;;
27818;SDS011;15192;44.854;10.046;2023-06-24T08:45:12;8.30;;;4.55;;
27818;SDS011;15192;44.854;10.046;2023-06-24T08:47:41;9.75;;;4.20;;
27818;SDS011;15192;44.854;10.046;2023-06-24T08:50:11;11.57;;;3.92;;
27818;SDS011;15192;44.854;10.046;2023-06-24T08:52:45;8.85;;;4.45;;
27818;SDS011;15192;44.854;10.046;2023-06-24T08:55:16;5.72;;;3.87;;
27818;SDS011;15192;44.854;10.046;2023-06-24T08:57:47;8.48;;;4.00;;
27818;SDS011;15192;44.854;10.046;2023-06-24T09:00:17;9.30;;;4.05;;
27818;SDS011;15192;44.854;10.046;2023-06-24T09:02:46;7.28;;;4.40;;
27818;SDS011;15192;44.854;10.046;2023-06-24T09:05:15;9.63;;;4.33;;
27818;SDS011;15192;44.854;10.046;2023-06-24T09:07:44;6.80;;;4.00;;
27818;SDS011;15192;44.854;10.046;2023-06-24T09:10:28;5.55;;;3.45;;
27818;SDS011;15192;44.854;10.046;2023-06-24T09:13:05;5.58;;;3.60;;
27818;SDS011;15192;44.854;10.046;2023-06-24T09:15:35;6.22;;;3.87;;
27818;SDS011;15192;44.854;10.046;2023-06-24T09:18:05;6.12;;;3.87;;
27818;SDS011;15192;44.854;10.046;2023-06-24T09:20:34;9.50;;;4.05;;
27818;SDS011;15192;44.854;10.046;2023-06-24T09:23:06;6.97;;;4.00;;
27818;SDS011;15192;44.854;10.046;2023-06-24T09:25:36;6.15;;;3.87;;
27818;SDS011;15192;44.854;10.046;2023-06-24T09:28:05;11.38;;;4.20;;
27818;SDS011;15192;44.854;10.046;2023-06-24T09:30:35;5.62;;;3.62;;
27818;SDS011;15192;44.854;10.046;2023-06-24T09:33:04;7.12;;;4.15;;
27818;SDS011;15192;44.854;10.046;2023-06-24T09:35:35;10.95;;;4.92;;
27818;SDS011;15192;44.854;10.046;2023-06-24T09:38:04;11.00;;;4.62;;
27818;SDS011;15192;44.854;10.046;2023-06-24T09:40:34;6.50;;;4.33;;
27818;SDS011;15192;44.854;10.046;2023-06-24T09:43:04;7.22;;;4.00;;
27818;SDS011;15192;44.854;10.046;2023-06-24T09:45:33;8.88;;;4.10;;
27818;SDS011;15192;44.854;10.046;2023-06-24T09:48:02;8.65;;;4.65;;
27818;SDS011;15192;44.854;10.046;2023-06-24T09:50:32;5.87;;;4.42;;
27818;SDS011;15192;44.854;10.046;2023-06-24T09:53:02;10.98;;;5.35;;
27818;SDS011;15192;44.854;10.046;2023-06-24T09:55:32;6.75;;;4.20;;
27818;SDS011;15192;44.854;10.046;2023-06-24T09:58:01;8.60;;;4.47;;
27818;SDS011;15192;44.854;10.046;2023-06-24T10:00:32;10.20;;;5.08;;
27818;SDS011;15192;44.854;10.046;2023-06-24T10:03:01;6.37;;;4.25;;
27818;SDS011;15192;44.854;10.046;2023-06-24T10:05:31;8.48;;;3.85;;
27818;SDS011;15192;44.854;10.046;2023-06-24T10:08:00;8.28;;;4.00;;
27818;SDS011;15192;44.854;10.046;2023-06-24T10:10:30;9.58;;;4.22;;
27818;SDS011;15192;44.854;10.046;2023-06-24T10:12:59;5.45;;;3.80;;
27818;SDS011;15192;44.854;10.046;2023-06-24T10:15:28;7.15;;;3.92;;
27818;SDS011;15192;44.854;10.046;2023-06-24T10:18:00;7.62;;;3.65;;
27818;SDS011;15192;44.854;10.046;2023-06-24T10:20:31;4.35;;;3.55;;
27818;SDS011;15192;44.854;10.046;2023-06-24T10:23:05;7.00;;;4.12;;
27818;SDS011;15192;44.854;10.046;2023-06-24T10:25:36;7.37;;;3.98;;
27818;SDS011;15192;44.854;10.046;2023-06-24T10:28:05;6.95;;;4.62;;
27818;SDS011;15192;44.854;10.046;2023-06-24T10:30:34;9.85;;;3.77;;
27818;SDS011;15192;44.854;10.046;2023-06-24T10:33:04;7.95;;;4.72;;
27818;SDS011;15192;44.854;10.046;2023-06-24T10:35:40;7.28;;;4.62;;
27818;SDS011;15192;44.854;10.046;2023-06-24T10:38:09;5.15;;;4.10;;
27818;SDS011;15192;44.854;10.046;2023-06-24T10:40:39;5.37;;;4.25;;
27818;SDS011;15192;44.854;10.046;2023-06-24T10:46:01;5.97;;;4.12;;
27818;SDS011;15192;44.854;10.046;2023-06-24T10:50:54;6.28;;;3.65;;
27818;SDS011;15192;44.854;10.046;2023-06-24T10:53:22;4.85;;;3.40;;
27818;SDS011;15192;44.854;10.046;2023-06-24T10:55:51;7.87;;;3.42;;
27818;SDS011;15192;44.854;10.046;2023-06-24T10:58:22;5.83;;;3.72;;
27818;SDS011;15192;44.854;10.046;2023-06-24T11:00:51;4.47;;;3.30;;
27818;SDS011;15192;44.854;10.046;2023-06-24T11:03:20;8.73;;;4.00;;
27818;SDS011;15192;44.854;10.046;2023-06-24T11:05:49;4.35;;;3.35;;
27818;SDS011;15192;44.854;10.046;2023-06-24T11:08:18;4.55;;;3.47;;
27818;SDS011;15192;44.854;10.046;2023-06-24T11:10:48;7.15;;;4.47;;
27818;SDS011;15192;44.854;10.046;2023-06-24T11:13:19;11.50;;;4.10;;
27818;SDS011;15192;44.854;10.046;2023-06-24T11:15:50;6.45;;;4.10;;
27818;SDS011;15192;44.854;10.046;2023-06-24T11:18:20;7.67;;;3.47;;
27818;SDS011;15192;44.854;10.046;2023-06-24T11:20:49;5.70;;;3.80;;
27818;SDS011;15192;44.854;10.046;2023-06-24T11:23:21;8.63;;;3.67;;
27818;SDS011;15192;44.854;10.046;2023-06-24T11:25:50;4.42;;;2.98;;
27818;SDS011;15192;44.854;10.046;2023-06-24T11:28:20;5.62;;;3.60;;
27818;SDS011;15192;44.854;10.046;2023-06-24T11:30:49;3.90;;;3.05;;
27818;SDS011;15192;44.854;10.046;2023-06-24T11:33:27;5.75;;;3.50;;
27818;SDS011;15192;44.854;10.046;2023-06-24T11:35:56;5.03;;;3.52;;
27818;SDS011;15192;44.854;10.046;2023-06-24T11:38:27;9.88;;;3.20;;
27818;SDS011;15192;44.854;10.046;2023-06-24T11:41:01;5.22;;;2.72;;
27818;SDS011;15192;44.854;10.046;2023-06-24T11:43:30;8.75;;;3.62;;
27818;SDS011;15192;44.854;10.046;2023-06-24T11:45:59;4.55;;;3.40;;
27818;SDS011;15192;44.854;10.046;2023-06-24T11:48:28;5.35;;;3.85;;
27818;SDS011;15192;44.854;10.046;2023-06-24T11:50:57;7.62;;;3.75;;
27818;SDS011;15192;44.854;10.046;2023-06-24T11:53:40;4.97;;;3.47;;
27818;SDS011;15192;44.854;10.046;2023-06-24T11:56:01;6.50;;;4.10;;
27818;SDS011;15192;44.854;10.046;2023-06-24T11:58:33;5.50;;;3.83;;
27818;SDS011;15192;44.854;10.046;2023-06-24T12:01:02;5.60;;;3.75;;
27818;SDS011;15192;44.854;10.046;2023-06-24T12:03:33;4.78;;;3.30;;
27818;SDS011;15192;44.854;10.046;2023-06-24T12:06:02;4.03;;;3.20;;
27818;SDS011;15192;44.854;10.046;2023-06-24T12:08:31;4.65;;;3.70;;
27818;SDS011;15192;44.854;10.046;2023-06-24T12:11:00;4.35;;;3.17;;
27818;SDS011;15192;44.854;10.046;2023-06-24T12:13:29;5.22;;;3.22;;
27818;SDS011;15192;44.854;10.046;2023-06-24T12:15:58;6.72;;;3.25;;
27818;SDS011;15192;44.854;10.046;2023-06-24T12:18:26;3.47;;;2.80;;
27818;SDS011;15192;44.854;10.046;2023-06-24T12:20:55;6.83;;;3.05;;
27818;SDS011;15192;44.854;10.046;2023-06-24T12:23:24;5.17;;;3.67;;
27818;SDS011;15192;44.854;10.046;2023-06-24T12:25:53;3.30;;;2.83;;
27818;SDS011;15192;44.854;10.046;2023-06-24T12:28:22;3.77;;;2.90;;
27818;SDS011;15192;44.854;10.046;2023-06-24T12:30:51;4.25;;;2.85;;
27818;SDS011;15192;44.854;10.046;2023-06-24T12:33:19;6.03;;;3.15;;
27818;SDS011;15192;44.854;10.046;2023-06-24T12:35:49;3.10;;;2.80;;
27818;SDS011;15192;44.854;10.046;2023-06-24T12:38:18;7.00;;;3.58;;
27818;SDS011;15192;44.854;10.046;2023-06-24T12:40:47;4.62;;;3.17;;
27818;SDS011;15192;44.854;10.046;2023-06-24T12:43:16;4.22;;;3.20;;
27818;SDS011;15192;44.854;10.046;2023-06-24T12:45:45;4.22;;;2.80;;
27818;SDS011;15192;44.854;10.046;2023-06-24T12:48:14;4.83;;;3.27;;
27818;SDS011;15192;44.854;10.046;2023-06-24T12:50:43;3.83;;;2.65;;
27818;SDS011;15192;44.854;10.046;2023-06-24T12:53:14;4.63;;;3.27;;
27818;SDS011;15192;44.854;10.046;2023-06-24T12:55:43;5.95;;;2.67;;
27818;SDS011;15192;44.854;10.046;2023-06-24T12:58:17;4.87;;;3.00;;
27818;SDS011;15192;44.854;10.046;2023-06-24T13:00:44;6.25;;;2.77;;
27818;SDS011;15192;44.854;10.046;2023-06-24T13:03:12;4.05;;;3.20;;
27818;SDS011;15192;44.854;10.046;2023-06-24T13:05:41;3.90;;;2.77;;
27818;SDS011;15192;44.854;10.046;2023-06-24T13:08:10;3.83;;;2.90;;
27818;SDS011;15192;44.854;10.046;2023-06-24T13:10:40;4.20;;;3.20;;
27818;SDS011;15192;44.854;10.046;2023-06-24T13:13:09;4.45;;;3.52;;
27818;SDS011;15192;44.854;10.046;2023-06-24T13:15:38;8.20;;;3.08;;
27818;SDS011;15192;44.854;10.046;2023-06-24T13:18:07;3.58;;;3.10;;
27818;SDS011;15192;44.854;10.046;2023-06-24T13:20:36;5.03;;;3.05;;
27818;SDS011;15192;44.854;10.046;2023-06-24T13:23:04;5.33;;;3.47;;
27818;SDS011;15192;44.854;10.046;2023-06-24T13:25:33;12.40;;;3.10;;
27818;SDS011;15192;44.854;10.046;2023-06-24T13:28:02;5.33;;;3.60;;
27818;SDS011;15192;44.854;10.046;2023-06-24T13:30:31;3.70;;;2.87;;
27818;SDS011;15192;44.854;10.046;2023-06-24T13:33:00;6.15;;;3.10;;
27818;SDS011;15192;44.854;10.046;2023-06-24T13:35:29;4.12;;;2.98;;
27818;SDS011;15192;44.854;10.046;2023-06-24T13:37:59;4.20;;;3.15;;
27818;SDS011;15192;44.854;10.046;2023-06-24T13:40:28;6.17;;;2.92;;
27818;SDS011;15192;44.854;10.046;2023-06-24T13:42:58;5.17;;;3.47;;
27818;SDS011;15192;44.854;10.046;2023-06-24T13:45:27;3.90;;;3.12;;
27818;SDS011;15192;44.854;10.046;2023-06-24T13:47:55;5.62;;;3.20;;
27818;SDS011;15192;44.854;10.046;2023-06-24T13:50:24;5.17;;;3.60;;
27818;SDS011;15192;44.854;10.046;2023-06-24T13:52:53;6.45;;;3.35;;
27818;SDS011;15192;44.854;10.046;2023-06-24T13:55:22;11.28;;;3.12;;
27818;SDS011;15192;44.854;10.046;2023-06-24T13:57:51;5.08;;;3.15;;
27818;SDS011;15192;44.854;10.046;2023-06-24T14:00:20;5.08;;;3.22;;
27818;SDS011;15192;44.854;10.046;2023-06-24T14:02:49;7.12;;;3.17;;
27818;SDS011;15192;44.854;10.046;2023-06-24T14:05:18;5.90;;;2.90;;
27818;SDS011;15192;44.854;10.046;2023-06-24T14:07:47;4.03;;;2.92;;
27818;SDS011;15192;44.854;10.046;2023-06-24T14:10:16;3.92;;;3.20;;
27818;SDS011;15192;44.854;10.046;2023-06-24T14:12:45;3.95;;;3.00;;
27818;SDS011;15192;44.854;10.046;2023-06-24T14:15:14;4.28;;;3.10;;
27818;SDS011;15192;44.854;10.046;2023-06-24T14:17:43;3.72;;;2.90;;
27818;SDS011;15192;44.854;10.046;2023-06-24T14:20:12;6.28;;;3.67;;
27818;SDS011;15192;44.854;10.046;2023-06-24T14:22:41;2.90;;;2.40;;
27818;SDS011;15192;44.854;10.046;2023-06-24T14:25:10;6.33;;;3.37;;
27818;SDS011;15192;44.854;10.046;2023-06-24T14:27:39;4.90;;;2.87;;
27818;SDS011;15192;44.854;10.046;2023-06-24T14:30:08;4.35;;;2.90;;
27818;SDS011;15192;44.854;10.046;2023-06-24T14:32:37;3.65;;;2.72;;
27818;SDS011;15192;44.854;10.046;2023-06-24T14:35:06;8.38;;;3.58;;
27818;SDS011;15192;44.854;10.046;2023-06-24T14:37:36;4.50;;;2.90;;
27818;SDS011;15192;44.854;10.046;2023-06-24T14:40:06;5.00;;;2.92;;
27818;SDS011;15192;44.854;10.046;2023-06-24T14:42:35;4.00;;;2.87;;
27818;SDS011;15192;44.854;10.046;2023-06-24T14:45:04;3.37;;;2.60;;
27818;SDS011;15192;44.854;10.046;2023-06-24T14:47:33;3.20;;;2.70;;
27818;SDS011;15192;44.854;10.046;2023-06-24T14:50:02;3.90;;;2.60;;
27818;SDS011;15192;44.854;10.046;2023-06-24T14:52:32;3.20;;;2.90;;
27818;SDS011;15192;44.854;10.046;2023-06-24T14:55:01;3.85;;;2.67;;
27818;SDS011;15192;44.854;10.046;2023-06-24T14:57:30;5.12;;;2.98;;
27818;SDS011;15192;44.854;10.046;2023-06-24T14:59:58;5.08;;;2.45;;
27818;SDS011;15192;44.854;10.046;2023-06-24T15:02:27;3.40;;;2.83;;
27818;SDS011;15192;44.854;10.046;2023-06-24T15:04:56;4.97;;;2.45;;
27818;SDS011;15192;44.854;10.046;2023-06-24T15:07:25;4.45;;;2.60;;
27818;SDS011;15192;44.854;10.046;2023-06-24T15:09:54;5.30;;;3.27;;
27818;SDS011;15192;44.854;10.046;2023-06-24T15:12:23;3.10;;;2.60;;